Aérodrome :
LOGIN :

S'inscrire | Disclaimer

   EN    FR    IT 

 










Légende :    VFR   VFR Marginal   IFR   IFR Intensif   IFR Très Intensif
Visi : 
Plafond : 
>= 8 km
>= 3000ft
5 à 8 km
1000 à 3000 ft
1500m à 5 km
500 à 1000 ft
800 à 1500m
200 à 500 ft
< 800m
< 200 ft
Symboles :   Orages  Brouillard  Fortes neiges  Fortes précipitations  Vent > 20 kt
SIGMETs :   Divers  Orages  Givrage  Turbulence  Onde Orograph.  Cendres Volcan.







- Altitude de l'aérodrome : 459 ft
- Code IATA : CER
- Voir les cartes d'approche


LFRC - Cherbourg / Maupertus

DERNIER METAR :
  • 281130Z AUTO 30007KT 270V330 9999 FEW023 11/05 Q1018 NOSIG

METARs EXPIRÉS :
  • 281100Z AUTO 29007KT 250V330 9999 FEW023 11/05 Q1018 TEMPO SHRA BKN013
  • 281030Z AUTO 30006KT 270V340 9999 SCT020 BKN025 11/05 Q1018 TEMPO SHRA BKN013
  • 281000Z AUTO 29007KT 250V360 9999 BKN018 10/06 Q1018 TEMPO SHRA BKN013
  • 280930Z AUTO 33007KT 290V350 9999 BKN017 10/05 Q1018 TEMPO SHRA BKN013
  • 280900Z AUTO 33006KT 300V010 9999 BKN017 BKN022 10/06 Q1018 TEMPO SHRA BKN013

TAF TAF LFRC
Valide du 28 à 12h jusqu'au 28 à 21h UTC


281100Z 2812/2821 33008KT 9999 SCT030
BECMG 2819/2821 VRB03KT
Pas de NOTAMs connus pour ce terrain.



MET'MAP, la Météo Aéronautique d'un coup d'oeil ! - Copyright ORBIFLY Décembre 2007 - Disclaimer

ORBIFLY MET'MAP TEAM :

Programmation & Développement : Alexandra Zaïnal
Conception & Développement : Baudouin d'Aumeries
Co-Programmation & Développement : Marc-Olivier Méhu
Soutien technique & logistique : Manuel Goepfert

Contact : metmap@orbifly.com




SOURCES & CREDITS :

   NOAA